createdAt,value
2018-09-12T00:04:49.599Z,3.60
2018-09-12T00:07:18.718Z,3.30
2018-09-12T00:09:47.678Z,2.90
2018-09-12T00:12:18.119Z,2.53
2018-09-12T00:14:47.869Z,3.40
2018-09-12T00:17:16.907Z,2.10
2018-09-12T00:19:45.832Z,1.73
2018-09-12T00:22:14.691Z,1.80
2018-09-12T00:24:44.546Z,1.50
2018-09-12T00:27:13.695Z,1.70
2018-09-12T00:29:42.576Z,2.30
2018-09-12T00:32:11.597Z,2.10
2018-09-12T00:34:40.539Z,2.00
2018-09-12T00:37:09.383Z,2.30
2018-09-12T00:39:38.654Z,2.20
2018-09-12T00:42:07.735Z,1.87
2018-09-12T00:44:36.670Z,1.73
2018-09-12T00:47:05.565Z,1.77
2018-09-12T00:49:34.417Z,1.13
2018-09-12T00:52:03.923Z,1.13
2018-09-12T00:54:32.806Z,0.80
2018-09-12T00:57:01.612Z,0.93
2018-09-12T00:59:30.949Z,0.87
2018-09-12T01:02:00.273Z,0.93
2018-09-12T01:04:29.279Z,1.10
2018-09-12T01:06:58.301Z,0.93
2018-09-12T01:09:34.350Z,1.00
2018-09-12T01:12:05.272Z,0.90
2018-09-12T01:14:34.625Z,1.27
2018-09-12T01:17:03.578Z,1.20
2018-09-12T01:19:32.460Z,1.87
2018-09-12T01:22:02.622Z,1.20
2018-09-12T01:24:31.652Z,1.30
2018-09-12T01:27:01.634Z,1.17
2018-09-12T01:29:30.511Z,1.77
2018-09-12T01:31:59.454Z,1.60
2018-09-12T01:34:28.470Z,2.00
2018-09-12T01:36:57.410Z,2.50
2018-09-12T01:39:26.457Z,2.53
2018-09-12T01:41:55.369Z,2.17
2018-09-12T01:44:24.375Z,2.33
2018-09-12T01:46:53.409Z,2.33
2018-09-12T01:49:22.313Z,1.70
2018-09-12T01:51:51.661Z,1.70
2018-09-12T01:54:21.263Z,1.30
2018-09-12T01:56:50.246Z,1.20
2018-09-12T01:59:19.258Z,1.37
2018-09-12T02:01:48.389Z,1.10
2018-09-12T02:04:17.350Z,1.50
2018-09-12T02:06:46.180Z,1.40
2018-09-12T02:09:15.804Z,1.50
2018-09-12T02:11:44.885Z,1.50
2018-09-12T02:14:13.796Z,1.20
2018-09-12T02:16:42.932Z,1.20
2018-09-12T02:19:12.024Z,1.30
2018-09-12T02:21:40.937Z,1.47
2018-09-12T02:24:09.786Z,1.20
2018-09-12T02:26:38.688Z,1.20
2018-09-12T02:29:07.722Z,1.30
2018-09-12T02:31:36.797Z,1.10
2018-09-12T02:34:05.892Z,1.00
2018-09-12T02:36:34.744Z,0.90
2018-09-12T02:39:05.579Z,1.03
2018-09-12T02:41:34.503Z,1.00
2018-09-12T02:44:03.443Z,1.30
2018-09-12T02:46:32.310Z,1.27
2018-09-12T02:49:01.167Z,1.40
2018-09-12T02:51:30.194Z,1.10
2018-09-12T02:54:20.014Z,1.47
2018-09-12T02:56:49.101Z,1.30
2018-09-12T02:59:17.972Z,1.27
2018-09-12T03:01:46.921Z,1.63
2018-09-12T03:04:15.929Z,1.50
2018-09-12T03:20:43.579Z,1.70
2018-09-12T03:23:12.932Z,1.67
2018-09-12T03:25:41.986Z,1.40
2018-09-12T03:28:11.091Z,1.20
2018-09-12T03:30:39.982Z,1.30
2018-09-12T03:33:08.885Z,1.20
2018-09-12T03:35:51.238Z,1.10
2018-09-12T03:38:20.422Z,1.20
2018-09-12T03:40:49.366Z,1.00
2018-09-12T03:43:18.318Z,1.20
2018-09-12T03:45:47.386Z,1.13
2018-09-12T03:48:17.198Z,1.00
2018-09-12T03:50:46.402Z,1.10
2018-09-12T03:53:15.427Z,1.47
2018-09-12T03:55:44.764Z,2.00
2018-09-12T03:58:13.787Z,1.70
2018-09-12T04:00:43.006Z,1.40
2018-09-12T04:03:12.701Z,1.30
2018-09-12T04:05:41.668Z,2.00
2018-09-12T04:08:10.614Z,1.27
2018-09-12T04:10:45.763Z,1.57
2018-09-12T04:13:14.556Z,1.47
2018-09-12T04:15:44.199Z,1.53
2018-09-12T04:18:13.825Z,1.10
2018-09-12T04:20:47.281Z,1.20
2018-09-12T04:23:17.613Z,1.60
2018-09-12T04:25:46.756Z,1.23
2018-09-12T04:28:31.709Z,1.40
2018-09-12T04:31:00.687Z,1.67
2018-09-12T04:33:29.606Z,1.80
2018-09-12T04:35:58.529Z,1.50
2018-09-12T04:38:29.920Z,1.43
2018-09-12T04:40:59.126Z,1.50
2018-09-12T04:43:27.991Z,1.70
2018-09-12T04:45:56.938Z,1.90
2018-09-12T04:48:26.101Z,1.70
2018-09-12T04:50:59.463Z,1.50
2018-09-12T04:53:28.674Z,1.80
2018-09-12T04:55:57.836Z,1.70
2018-09-12T04:58:26.862Z,1.40
2018-09-12T05:00:58.115Z,1.20
2018-09-12T05:03:27.627Z,1.70
2018-09-12T05:06:00.487Z,2.13
2018-09-12T05:08:31.657Z,2.03
2018-09-12T05:11:04.980Z,1.77
2018-09-12T05:13:36.014Z,1.23
2018-09-12T05:16:11.023Z,1.40
2018-09-12T05:18:49.758Z,1.30
2018-09-12T05:21:18.882Z,1.93
2018-09-12T05:23:50.552Z,1.80
2018-09-12T05:26:29.186Z,1.90
2018-09-12T05:29:04.699Z,1.80
2018-09-12T05:31:41.743Z,2.10
2018-09-12T05:34:10.868Z,1.93
2018-09-12T05:36:39.870Z,1.80
2018-09-12T05:39:10.489Z,2.30
2018-09-12T05:41:44.665Z,2.37
2018-09-12T05:44:13.669Z,2.40
2018-09-12T05:46:43.827Z,2.00
2018-09-12T05:49:12.811Z,2.40
2018-09-12T05:51:41.866Z,2.50
2018-09-12T05:54:10.921Z,2.20
2018-09-12T05:56:40.294Z,2.47
2018-09-12T05:59:09.376Z,3.17
2018-09-12T06:01:38.474Z,2.37
2018-09-12T06:04:07.572Z,2.60
2018-09-12T06:06:36.456Z,2.03
2018-09-12T06:09:07.775Z,2.10
2018-09-12T06:11:37.035Z,2.37
2018-09-12T06:14:06.657Z,1.53
2018-09-12T06:16:36.368Z,1.67
2018-09-12T06:19:06.381Z,1.40
2018-09-12T06:21:35.798Z,2.23
2018-09-12T06:24:04.852Z,2.50
2018-09-12T06:26:33.923Z,1.70
2018-09-12T06:29:03.555Z,1.80
2018-09-12T06:31:32.757Z,1.93
2018-09-12T06:34:01.854Z,2.10
2018-09-12T06:36:31.608Z,1.77
2018-09-12T06:39:00.769Z,2.03
2018-09-12T06:41:29.946Z,2.10
2018-09-12T06:43:59.791Z,2.80
2018-09-12T06:46:29.157Z,1.70
2018-09-12T06:48:58.179Z,1.83
2018-09-12T06:51:27.203Z,1.70
2018-09-12T06:53:56.409Z,2.50
2018-09-12T06:56:25.482Z,3.00
2018-09-12T06:58:54.423Z,2.43
2018-09-12T07:01:25.659Z,1.93
2018-09-12T07:03:58.992Z,1.80
2018-09-12T07:06:28.133Z,2.50
2018-09-12T07:08:58.038Z,3.23
2018-09-12T07:11:27.088Z,2.20
2018-09-12T07:13:56.110Z,2.13
2018-09-12T07:16:25.304Z,2.10
2018-09-12T07:18:54.335Z,2.43
2018-09-12T07:21:23.357Z,2.53
2018-09-12T07:23:52.408Z,2.40
2018-09-12T07:26:22.010Z,2.83
2018-09-12T07:28:51.047Z,2.80
2018-09-12T07:31:20.007Z,2.37
2018-09-12T07:33:49.037Z,2.30
2018-09-12T07:36:17.998Z,2.43
2018-09-12T07:38:47.082Z,2.30
2018-09-12T07:41:16.446Z,2.57
2018-09-12T07:43:45.600Z,2.23
2018-09-12T07:46:14.597Z,2.53
2018-09-12T07:48:43.668Z,2.33
2018-09-12T07:51:12.673Z,2.70
2018-09-12T07:53:41.773Z,2.33
2018-09-12T07:56:10.923Z,1.90
2018-09-12T07:58:39.954Z,2.27
2018-09-12T08:01:09.599Z,1.60
2018-09-12T08:03:38.572Z,2.00
2018-09-12T08:06:07.635Z,2.87
2018-09-12T08:08:36.625Z,1.97
2018-09-12T08:11:05.577Z,2.40
2018-09-12T08:13:34.692Z,1.97
2018-09-12T08:16:03.795Z,2.43
2018-09-12T08:18:32.958Z,2.30
2018-09-12T08:21:01.940Z,2.43
2018-09-12T08:23:30.983Z,2.00
2018-09-12T08:25:59.928Z,2.27
2018-09-12T08:28:28.977Z,1.60
2018-09-12T08:30:57.949Z,2.60
2018-09-12T08:33:27.218Z,2.60
2018-09-12T08:35:56.988Z,2.87
2018-09-12T08:38:26.046Z,2.27
2018-09-12T08:40:55.133Z,2.37
2018-09-12T08:43:24.243Z,2.40
2018-09-12T08:45:55.925Z,2.23
2018-09-12T08:48:25.433Z,2.20
2018-09-12T08:50:54.308Z,2.63
2018-09-12T08:53:23.427Z,2.07
2018-09-12T08:55:52.341Z,3.83
2018-09-12T08:58:21.435Z,2.57
2018-09-12T09:00:50.628Z,2.40
2018-09-12T09:03:19.658Z,2.33
2018-09-12T09:05:48.804Z,2.03
2018-09-12T09:08:17.749Z,2.47
2018-09-12T09:10:46.882Z,1.87
2018-09-12T09:13:16.515Z,2.07
2018-09-12T09:15:45.487Z,3.40
2018-09-12T09:18:14.540Z,3.30
2018-09-12T09:20:43.632Z,3.00
2018-09-12T09:23:13.535Z,2.17
2018-09-12T09:25:44.075Z,2.73
2018-09-12T09:28:14.181Z,2.70
2018-09-12T09:30:43.348Z,2.57
2018-09-12T09:33:12.406Z,2.50
2018-09-12T09:35:41.659Z,3.30
2018-09-12T09:38:11.406Z,3.17
2018-09-12T09:40:40.317Z,3.60
2018-09-12T09:43:09.515Z,2.50
2018-09-12T09:45:38.571Z,3.10
2018-09-12T09:48:07.446Z,2.80
2018-09-12T09:50:36.553Z,3.37
2018-09-12T09:53:05.542Z,3.00
2018-09-12T09:55:36.038Z,2.40
2018-09-12T09:58:05.239Z,2.27
2018-09-12T10:00:40.079Z,2.77
2018-09-12T10:03:14.408Z,2.50
2018-09-12T10:05:48.725Z,2.50
2018-09-12T10:08:24.804Z,2.37
2018-09-12T10:10:53.725Z,2.03
2018-09-12T10:13:23.891Z,2.57
2018-09-12T10:15:52.938Z,2.10
2018-09-12T10:18:22.232Z,2.20
2018-09-12T10:20:51.515Z,2.80
2018-09-12T10:23:22.239Z,4.77
2018-09-12T10:25:51.563Z,2.50
2018-09-12T10:28:21.339Z,2.30
2018-09-12T10:30:50.429Z,2.43
2018-09-12T10:33:19.326Z,2.53
2018-09-12T10:35:48.931Z,3.63
2018-09-12T10:38:18.053Z,2.93
2018-09-12T10:40:47.125Z,2.80
2018-09-12T10:43:17.204Z,3.00
2018-09-12T10:45:46.162Z,3.07
2018-09-12T10:48:38.585Z,5.30
2018-09-12T10:51:07.627Z,4.70
2018-09-12T10:53:36.520Z,3.00
2018-09-12T10:56:05.583Z,4.50
2018-09-12T10:58:35.650Z,8.80
2018-09-12T11:01:05.746Z,3.93
2018-09-12T11:03:34.727Z,7.97
2018-09-12T11:06:05.045Z,3.87
2018-09-12T11:08:34.070Z,4.10
2018-09-12T11:11:03.117Z,3.23
2018-09-12T11:13:34.466Z,3.00
2018-09-12T11:16:03.472Z,7.30
2018-09-12T11:18:33.139Z,3.43
2018-09-12T11:21:02.177Z,2.60
2018-09-12T11:23:31.918Z,3.30
2018-09-12T11:26:01.101Z,4.03
2018-09-12T11:28:30.258Z,3.73
2018-09-12T11:31:00.272Z,3.60
2018-09-12T11:33:29.567Z,2.40
2018-09-12T11:35:58.586Z,3.57
2018-09-12T11:38:27.993Z,2.60
2018-09-12T11:40:56.979Z,2.73
2018-09-12T11:43:25.976Z,2.30
2018-09-12T11:45:55.061Z,2.40
2018-09-12T11:48:24.125Z,2.00
2018-09-12T11:50:53.340Z,2.87
2018-09-12T11:53:23.137Z,2.10
2018-09-12T11:55:52.550Z,2.60
2018-09-12T11:58:21.516Z,2.60
2018-09-12T12:00:50.693Z,1.83
2018-09-12T12:03:19.649Z,2.30
2018-09-12T12:05:50.928Z,1.73
2018-09-12T12:08:20.065Z,1.97
2018-09-12T12:10:49.234Z,1.90
2018-09-12T12:13:19.225Z,2.17
2018-09-12T12:15:48.398Z,2.00
2018-09-12T12:18:18.073Z,2.50
2018-09-12T12:20:47.119Z,2.40
2018-09-12T12:23:17.047Z,2.03
2018-09-12T12:25:46.078Z,2.43
2018-09-12T12:28:15.067Z,5.00
2018-09-12T12:30:49.698Z,1.90
2018-09-12T12:33:24.200Z,2.20
2018-09-12T12:35:53.225Z,1.90
2018-09-12T12:38:22.303Z,1.90
2018-09-12T12:40:51.403Z,3.43
2018-09-12T12:43:20.402Z,2.20
2018-09-12T12:45:51.122Z,2.00
2018-09-12T12:48:20.373Z,2.10
2018-09-12T12:50:49.372Z,2.63
2018-09-12T12:53:18.332Z,2.87
2018-09-12T12:55:47.366Z,1.83
2018-09-12T12:58:16.352Z,2.57
2018-09-12T13:00:45.338Z,3.00
2018-09-12T13:03:14.392Z,2.13
2018-09-12T13:05:49.621Z,1.50
2018-09-12T13:08:18.551Z,1.83
2018-09-12T13:10:47.732Z,2.00
2018-09-12T13:13:16.597Z,1.37
2018-09-12T13:15:45.661Z,2.00
2018-09-12T13:18:15.256Z,2.80
2018-09-12T13:20:44.170Z,2.50
2018-09-12T13:23:14.835Z,2.10
2018-09-12T13:25:43.657Z,1.00
2018-09-12T13:28:12.642Z,1.00
2018-09-12T13:30:41.849Z,0.80
2018-09-12T13:33:10.881Z,0.70
2018-09-12T13:35:39.850Z,0.87
2018-09-12T13:38:08.972Z,1.20
2018-09-12T13:40:37.921Z,1.17
2018-09-12T13:43:06.939Z,1.47
2018-09-12T13:45:35.758Z,4.00
2018-09-12T13:48:04.950Z,1.07
2018-09-12T13:50:33.979Z,0.90
2018-09-12T13:53:02.787Z,0.97
2018-09-12T13:55:31.919Z,1.13
2018-09-12T13:58:00.938Z,1.60
2018-09-12T14:00:31.605Z,1.30
2018-09-12T14:03:02.154Z,1.40
2018-09-12T14:05:31.805Z,1.50
2018-09-12T14:08:01.342Z,2.27
2018-09-12T14:10:30.278Z,2.27
2018-09-12T14:12:59.384Z,2.70
2018-09-12T14:15:28.437Z,3.63
2018-09-12T14:17:57.909Z,3.30
2018-09-12T14:20:26.882Z,3.60
2018-09-12T14:22:56.183Z,4.20
2018-09-12T14:25:25.179Z,3.53
2018-09-12T14:27:54.224Z,2.40
2018-09-12T14:30:23.225Z,2.90
2018-09-12T14:32:52.914Z,2.33
2018-09-12T14:35:22.127Z,2.53
2018-09-12T14:37:51.119Z,2.40
2018-09-12T14:40:20.207Z,1.93
2018-09-12T14:42:49.131Z,2.20
2018-09-12T14:45:18.878Z,2.20
2018-09-12T14:47:47.955Z,2.00
2018-09-12T14:50:17.116Z,1.50
2018-09-12T14:52:46.109Z,1.90
2018-09-12T14:55:15.148Z,1.43
2018-09-12T14:57:44.398Z,1.23
2018-09-12T15:00:17.721Z,1.50
2018-09-12T15:02:46.875Z,1.40
2018-09-12T15:05:15.985Z,1.20
2018-09-12T15:07:45.859Z,1.10
2018-09-12T15:10:14.925Z,1.47
2018-09-12T15:12:44.439Z,1.10
2018-09-12T15:15:13.534Z,1.33
2018-09-12T15:17:49.777Z,2.00
2018-09-12T15:20:22.240Z,1.50
2018-09-12T15:22:51.430Z,1.13
2018-09-12T15:25:21.395Z,0.97
2018-09-12T15:27:51.463Z,0.90
2018-09-12T15:30:20.734Z,1.47
2018-09-12T15:32:51.422Z,1.00
2018-09-12T15:35:23.327Z,1.20
2018-09-12T15:37:52.574Z,1.10
2018-09-12T15:40:21.698Z,1.23
2018-09-12T15:42:51.503Z,1.40
2018-09-12T15:45:24.143Z,1.30
2018-09-12T15:47:53.598Z,1.13
2018-09-12T15:50:25.277Z,1.53
2018-09-12T15:52:55.432Z,0.93
2018-09-12T15:55:27.111Z,1.07
2018-09-12T15:57:57.522Z,1.60
2018-09-12T16:00:31.092Z,1.13
2018-09-12T16:03:01.992Z,1.00
2018-09-12T16:05:31.059Z,0.93
2018-09-12T16:08:00.534Z,1.20
2018-09-12T16:10:30.249Z,1.00
2018-09-12T16:12:59.345Z,1.00
2018-09-12T16:15:28.459Z,0.60
2018-09-12T16:17:57.448Z,0.77
2018-09-12T16:20:26.614Z,1.30
2018-09-12T16:22:57.055Z,1.20
2018-09-12T16:25:25.998Z,0.83
2018-09-12T16:27:56.844Z,1.00
2018-09-12T16:30:27.204Z,1.50
2018-09-12T16:32:56.214Z,1.00
2018-09-12T16:35:31.573Z,0.77
2018-09-12T16:38:00.747Z,1.10
2018-09-12T16:43:21.184Z,1.57
2018-09-12T16:45:51.963Z,1.07
2018-09-12T16:51:21.243Z,0.80
2018-09-12T16:53:50.783Z,1.37
2018-09-12T16:56:20.237Z,1.10
2018-09-12T16:58:52.614Z,1.53
2018-09-12T17:01:21.636Z,1.37
2018-09-12T17:03:51.828Z,1.13
2018-09-12T17:06:25.631Z,1.03
2018-09-12T17:08:54.710Z,1.07
2018-09-12T17:11:23.857Z,1.00
2018-09-12T17:13:52.866Z,1.50
2018-09-12T17:16:22.600Z,1.10
2018-09-12T17:18:51.548Z,1.27
2018-09-12T17:21:23.402Z,1.47
2018-09-12T17:24:00.010Z,0.93
2018-09-12T17:26:29.037Z,0.90
2018-09-12T17:28:58.357Z,1.40
2018-09-12T17:31:27.517Z,1.23
2018-09-12T17:33:56.889Z,1.70
2018-09-12T17:36:26.954Z,1.73
2018-09-12T17:38:56.186Z,1.30
2018-09-12T17:44:15.085Z,1.93
2018-09-12T17:46:44.047Z,2.00
2018-09-12T17:49:13.207Z,1.80
2018-09-12T17:51:42.414Z,1.47
2018-09-12T17:54:11.561Z,1.70
2018-09-12T17:56:40.597Z,1.50
2018-09-12T17:59:10.294Z,1.60
2018-09-12T18:01:40.469Z,1.40
2018-09-12T18:04:10.551Z,1.87
2018-09-12T18:06:39.570Z,1.43
2018-09-12T18:09:09.703Z,1.80
2018-09-12T18:11:38.733Z,1.50
2018-09-12T18:14:07.914Z,1.40
2018-09-12T18:16:37.572Z,1.40
2018-09-12T18:19:06.531Z,1.60
2018-09-12T18:21:35.756Z,1.37
2018-09-12T18:24:04.864Z,1.60
2018-09-12T18:26:37.169Z,1.67
2018-09-12T18:29:08.450Z,2.57
2018-09-12T18:31:37.731Z,1.50
2018-09-12T18:34:06.869Z,2.53
2018-09-12T18:36:36.862Z,1.60
2018-09-12T18:39:07.806Z,1.77
2018-09-12T18:41:37.058Z,1.40
2018-09-12T18:44:06.471Z,1.73
2018-09-12T18:46:35.602Z,1.80
2018-09-12T18:49:04.713Z,1.60
2018-09-12T18:51:34.042Z,1.73
2018-09-12T18:54:03.265Z,1.60
2018-09-12T18:56:32.194Z,1.40
2018-09-12T18:59:02.044Z,1.90
2018-09-12T19:01:31.372Z,1.37
2018-09-12T19:04:00.675Z,1.53
2018-09-12T19:06:35.024Z,1.50
2018-09-12T19:09:07.527Z,1.23
2018-09-12T19:11:36.598Z,1.50
2018-09-12T19:14:08.323Z,1.40
2018-09-12T19:16:37.507Z,1.57
2018-09-12T19:19:06.491Z,1.40
2018-09-12T19:21:35.581Z,1.60
2018-09-12T19:24:05.790Z,1.50
2018-09-12T19:26:37.095Z,1.53
2018-09-12T19:29:06.110Z,1.80
2018-09-12T19:31:35.381Z,2.20
2018-09-12T19:34:04.584Z,2.07
2018-09-12T19:36:57.878Z,2.20
2018-09-12T19:39:29.333Z,2.00
2018-09-12T19:42:00.058Z,1.73
2018-09-12T19:44:29.248Z,3.90
2018-09-12T19:46:59.111Z,1.50
2018-09-12T19:49:35.218Z,1.70
2018-09-12T19:52:05.454Z,1.70
2018-09-12T19:54:41.755Z,1.70
2018-09-12T19:57:11.726Z,1.70
2018-09-12T19:59:41.866Z,1.53
2018-09-12T20:02:12.355Z,1.70
2018-09-12T20:04:41.453Z,2.03
2018-09-12T20:07:11.638Z,1.30
2018-09-12T20:09:41.132Z,1.53
2018-09-12T20:12:20.840Z,1.43
2018-09-12T20:14:50.225Z,1.43
2018-09-12T20:17:23.675Z,1.47
2018-09-12T20:19:52.879Z,1.33
2018-09-12T20:22:22.315Z,1.30
2018-09-12T20:24:51.847Z,1.20
2018-09-12T20:27:21.338Z,1.30
2018-09-12T20:29:51.843Z,1.70
2018-09-12T20:32:20.933Z,1.70
2018-09-12T20:34:53.646Z,1.50
2018-09-12T20:37:22.786Z,2.00
2018-09-12T20:39:56.868Z,1.73
2018-09-12T20:42:26.337Z,2.00
2018-09-12T20:44:55.897Z,2.20
2018-09-12T20:47:26.021Z,1.87
2018-09-12T20:49:55.062Z,1.70
2018-09-12T20:52:34.870Z,2.17
2018-09-12T20:55:04.291Z,2.23
2018-09-12T20:57:33.414Z,1.70
2018-09-12T21:00:02.484Z,2.07
2018-09-12T21:02:31.761Z,1.80
2018-09-12T21:05:00.973Z,1.70
2018-09-12T21:07:30.591Z,1.40
2018-09-12T21:09:59.680Z,1.40
2018-09-12T21:12:28.617Z,1.80
2018-09-12T21:14:58.409Z,1.50
2018-09-12T21:17:28.694Z,1.90
2018-09-12T21:19:57.665Z,1.60
2018-09-12T21:22:26.847Z,2.10
2018-09-12T21:24:55.811Z,1.90
2018-09-12T21:27:24.925Z,2.33
2018-09-12T21:29:54.190Z,2.40
2018-09-12T21:32:23.715Z,2.10
2018-09-12T21:34:52.794Z,1.47
2018-09-12T21:37:23.977Z,1.90
2018-09-12T21:39:53.219Z,2.80
2018-09-12T21:42:22.346Z,1.90
2018-09-12T21:44:51.348Z,1.97
2018-09-12T21:47:20.995Z,1.93
2018-09-12T21:49:50.196Z,1.90
2018-09-12T21:52:19.362Z,2.00
2018-09-12T21:54:50.214Z,2.30
2018-09-12T21:57:19.410Z,2.60
2018-09-12T21:59:48.489Z,2.67
2018-09-12T22:02:17.604Z,2.30
2018-09-12T22:04:46.758Z,2.23
2018-09-12T22:07:16.714Z,2.67
2018-09-12T22:09:45.926Z,3.07
2018-09-12T22:12:15.096Z,2.50
2018-09-12T22:14:44.184Z,2.63
2018-09-12T22:17:13.251Z,2.70
2018-09-12T22:19:42.523Z,2.70
2018-09-12T22:22:11.589Z,2.70
2018-09-12T22:24:41.340Z,2.87
2018-09-12T22:27:10.424Z,3.07
2018-09-12T22:29:39.422Z,2.77
2018-09-12T22:32:09.467Z,2.90
2018-09-12T22:34:38.529Z,3.50
2018-09-12T22:37:07.529Z,2.80
2018-09-12T22:39:36.714Z,3.07
2018-09-12T22:42:05.875Z,3.07
2018-09-12T22:44:34.973Z,2.97
2018-09-12T22:47:04.225Z,3.30
2018-09-12T22:49:33.251Z,2.43
2018-09-12T22:52:02.412Z,3.00
2018-09-12T22:54:32.319Z,3.53
2018-09-12T22:57:01.432Z,3.10
2018-09-12T22:59:31.256Z,2.87
2018-09-12T23:02:00.378Z,3.03
2018-09-12T23:04:29.429Z,3.30
2018-09-12T23:06:58.542Z,3.40
2018-09-12T23:09:29.219Z,3.20
2018-09-12T23:11:59.481Z,3.07
2018-09-12T23:14:28.450Z,3.90
2018-09-12T23:16:58.268Z,3.30
2018-09-12T23:19:27.407Z,3.13
2018-09-12T23:21:56.518Z,3.40
2018-09-12T23:24:25.475Z,3.60
2018-09-12T23:26:54.572Z,3.80
2018-09-12T23:29:23.840Z,3.23
2018-09-12T23:31:53.003Z,3.47
2018-09-12T23:34:22.042Z,4.17
2018-09-12T23:36:51.547Z,4.20
2018-09-12T23:39:20.945Z,3.67
2018-09-12T23:41:50.089Z,3.73
2018-09-12T23:44:19.062Z,3.60
2018-09-12T23:46:48.185Z,3.63
2018-09-12T23:49:17.280Z,4.03
2018-09-12T23:51:46.361Z,3.60
2018-09-12T23:54:16.693Z,3.70
2018-09-12T23:56:45.821Z,3.33
2018-09-12T23:59:14.738Z,3.77
